Time;durP1;ratioP1;P1;durP2;ratioP2;P2;SDS_P1;SDS_P2;PMS_P1;PMS_P2;Temp;Humidity;BMP_temperature;BMP_pressure;BME280_temperature;BME280_humidity;BME280_pressure;Samples;Min_cycle;Max_cycle;Signal;HPM_P1;HPM_P2
2023/10/30 00:01:34;;;;;;;5.50;1.10;;;;;;;18.54;51.35;99793.72;5075599;28;20435;-66
2023/10/30 00:04:00;;;;;;;5.80;1.00;;;;;;;17.54;54.01;99791.50;5073881;28;20081;-67
2023/10/30 00:06:25;;;;;;;1.43;1.00;;;;;;;17.41;54.64;99792.19;5076162;28;20027;-67
2023/10/30 00:08:51;;;;;;;2.83;1.00;;;;;;;17.96;52.67;99796.19;5092201;28;20467;-67
2023/10/30 00:11:16;;;;;;;9.50;1.30;;;;;;;17.00;55.68;99797.91;5092607;28;20036;-68
2023/10/30 00:13:42;;;;;;;2.00;0.80;;;;;;;17.58;53.21;99790.41;5093577;28;20032;-68
2023/10/30 00:16:11;;;;;;;6.90;1.43;;;;;;;17.24;54.86;99789.59;5093845;28;20031;-67
2023/10/30 00:18:42;;;;;;;5.13;1.40;;;;;;;17.51;53.74;99781.94;5074262;28;20035;-67
2023/10/30 00:21:08;;;;;;;2.87;1.17;;;;;;;17.43;53.56;99794.72;5074685;28;20127;-67
2023/10/30 00:23:34;;;;;;;1.23;0.77;;;;;;;17.74;52.88;99798.31;5093807;28;20047;-67
2023/10/30 00:26:06;;;;;;;4.87;1.27;;;;;;;17.41;53.85;99810.66;5074691;28;20031;-67
2023/10/30 00:28:34;;;;;;;1.05;0.80;;;;;;;17.35;54.70;99818.94;5092425;28;20028;-68
2023/10/30 00:31:00;;;;;;;2.17;0.80;;;;;;;17.01;56.20;99819.88;5075121;28;20031;-66
2023/10/30 00:33:25;;;;;;;6.40;0.80;;;;;;;16.23;60.05;99823.78;5093197;28;20020;-68
2023/10/30 00:35:51;;;;;;;1.10;0.60;;;;;;;16.74;58.07;99821.19;5074869;28;20030;-66
2023/10/30 00:38:17;;;;;;;2.07;0.83;;;;;;;16.68;57.85;99823.31;5075334;28;20024;-66
2023/10/30 00:40:42;;;;;;;7.07;0.80;;;;;;;16.28;60.07;99826.19;5091779;28;20020;-67
2023/10/30 00:43:08;;;;;;;4.50;0.97;;;;;;;16.88;57.85;99830.19;5056346;28;20025;-68
2023/10/30 00:45:33;;;;;;;3.93;1.00;;;;;;;16.52;58.80;99836.44;5093689;28;20445;-67
2023/10/30 00:48:02;;;;;;;6.13;1.30;;;;;;;17.06;56.71;99837.19;5074413;28;20028;-67
2023/10/30 00:50:27;;;;;;;4.40;0.90;;;;;;;17.03;57.22;99845.25;5074357;28;20023;-67
2023/10/30 00:52:56;;;;;;;3.90;0.90;;;;;;;17.41;56.50;99839.72;5074490;28;20024;-67
2023/10/30 00:55:21;;;;;;;2.90;0.87;;;;;;;16.48;58.72;99850.72;5074891;28;20049;-67
2023/10/30 00:57:46;;;;;;;2.33;0.83;;;;;;;17.43;56.04;99845.78;5092177;28;20028;-67
2023/10/30 01:00:15;;;;;;;2.00;0.73;;;;;;;16.81;58.13;99849.94;5074962;28;20024;-67
2023/10/30 01:02:44;;;;;;;3.77;1.00;;;;;;;16.80;58.65;99841.13;5091779;28;20360;-68
2023/10/30 01:05:13;;;;;;;4.93;0.93;;;;;;;16.73;58.26;99840.63;5090860;28;20036;-68
2023/10/30 01:07:41;;;;;;;4.00;0.67;;;;;;;16.77;59.17;99844.81;5093197;28;20095;-67
2023/10/30 01:10:07;;;;;;;4.30;1.07;;;;;;;16.62;58.52;99842.94;5071680;28;20032;-67
2023/10/30 01:12:33;;;;;;;3.97;0.67;;;;;;;17.19;57.36;99849.75;5092021;28;20483;-67
2023/10/30 01:14:58;;;;;;;7.20;1.20;;;;;;;16.73;58.11;99859.09;5073929;28;20039;-68
2023/10/30 01:17:24;;;;;;;12.07;1.30;;;;;;;16.99;57.20;99858.72;5091794;28;20024;-68
2023/10/30 01:19:49;;;;;;;4.57;0.73;;;;;;;17.10;57.64;99865.16;5092157;28;20559;-68
2023/10/30 01:22:15;;;;;;;7.53;1.20;;;;;;;16.87;57.70;99865.44;5073796;28;20024;-68
2023/10/30 01:24:43;;;;;;;5.00;0.90;;;;;;;16.33;59.00;99861.09;5073981;28;20028;-67
2023/10/30 01:27:08;;;;;;;2.47;0.90;;;;;;;17.12;56.91;99855.34;5074289;28;20031;-67
2023/10/30 01:29:34;;;;;;;7.10;1.50;;;;;;;16.68;59.09;99847.03;5075055;28;20036;-66
2023/10/30 01:32:00;;;;;;;5.13;1.20;;;;;;;16.07;61.86;99850.06;5074505;28;20594;-67
2023/10/30 01:34:25;;;;;;;3.50;1.60;;;;;;;16.39;60.76;99842.34;5096821;28;20107;-67
2023/10/30 01:36:51;;;;;;;3.97;1.00;;;;;;;16.61;59.09;99847.38;5078534;28;20131;-67
2023/10/30 01:39:18;;;;;;;8.77;2.30;;;;;;;16.16;59.74;99859.28;5095067;28;20064;-66
2023/10/30 01:41:44;;;;;;;4.20;0.73;;;;;;;15.94;60.77;99859.47;5095507;28;20024;-67
2023/10/30 01:44:09;;;;;;;0.77;0.50;;;;;;;16.55;60.20;99854.75;5077512;28;20407;-68
2023/10/30 01:46:38;;;;;;;3.80;1.03;;;;;;;16.21;59.99;99861.69;5077957;28;20016;-67
2023/10/30 01:49:03;;;;;;;5.53;1.17;;;;;;;16.11;61.01;99862.16;5096374;28;20020;-67
2023/10/30 01:51:32;;;;;;;4.83;1.17;;;;;;;16.15;59.67;99856.72;5078804;28;20079;-67
2023/10/30 01:54:00;;;;;;;1.97;0.80;;;;;;;16.79;57.79;99869.31;5094044;28;20625;-68
2023/10/30 01:56:26;;;;;;;4.57;0.97;;;;;;;16.75;58.17;99862.50;5095808;28;20028;-68
2023/10/30 01:58:52;;;;;;;3.03;0.90;;;;;;;16.55;58.62;99875.84;5077646;28;20495;-67
2023/10/30 02:01:17;;;;;;;2.10;0.60;;;;;;;16.53;57.87;99877.72;5076270;28;20028;-66
2023/10/30 02:03:43;;;;;;;3.20;0.90;;;;;;;16.90;57.26;99878.53;5064457;28;20056;-67
2023/10/30 02:06:08;;;;;;;3.57;0.70;;;;;;;17.08;57.01;99880.19;5095469;28;20074;-67
2023/10/30 02:08:33;;;;;;;5.97;0.87;;;;;;;17.25;55.29;99881.09;5084558;28;20084;-67
2023/10/30 02:11:02;;;;;;;6.40;1.23;;;;;;;16.69;57.43;99873.38;5095222;28;20398;-68
2023/10/30 02:13:30;;;;;;;9.17;0.97;;;;;;;16.74;57.43;99876.63;5076825;28;20040;-67
2023/10/30 02:15:56;;;;;;;3.50;0.77;;;;;;;16.29;59.35;99880.63;5090710;28;20474;-67
2023/10/30 02:18:22;;;;;;;8.30;1.30;;;;;;;16.06;60.40;99890.50;5079574;28;20484;-67
2023/10/30 02:20:47;;;;;;;4.77;1.00;;;;;;;16.49;57.89;99882.28;5095128;28;20103;-67
2023/10/30 02:23:13;;;;;;;4.10;0.70;;;;;;;16.56;57.57;99882.84;5095142;28;20354;-68
2023/10/30 02:25:41;;;;;;;4.60;0.80;;;;;;;16.82;56.81;99885.94;5077444;28;20399;-67
2023/10/30 02:28:09;;;;;;;4.30;1.10;;;;;;;16.47;57.16;99888.56;5076825;28;20035;-67
2023/10/30 02:30:35;;;;;;;3.83;0.57;;;;;;;16.87;56.90;99889.19;5075332;28;20066;-67
2023/10/30 02:33:00;;;;;;;4.33;0.60;;;;;;;16.67;56.98;99883.13;5093834;28;20487;-68
2023/10/30 02:35:26;;;;;;;4.43;0.80;;;;;;;16.34;58.13;99891.81;5074930;28;20173;-67
2023/10/30 02:37:53;;;;;;;7.47;1.23;;;;;;;16.45;57.72;99889.47;5076970;28;20024;-66
2023/10/30 02:40:21;;;;;;;2.00;1.30;;;;;;;16.24;58.53;99893.19;5091616;28;20032;-67
2023/10/30 02:42:47;;;;;;;1.83;1.10;;;;;;;16.78;56.87;99899.28;5074525;28;20080;-67
2023/10/30 02:45:21;;;;;;;4.73;1.17;;;;;;;15.87;59.29;99900.22;5072091;28;20643;-67
2023/10/30 02:47:50;;;;;;;2.53;0.73;;;;;;;16.82;57.20;99901.78;5077472;28;20066;-67
2023/10/30 02:50:16;;;;;;;5.87;1.43;;;;;;;16.13;58.46;99900.75;5094264;28;20032;-67
2023/10/30 02:52:41;;;;;;;8.93;1.37;;;;;;;16.62;56.85;99909.78;5077093;28;20024;-68
2023/10/30 02:55:15;;;;;;;6.27;0.80;;;;;;;16.93;56.30;99915.31;5075299;28;20090;-67
2023/10/30 02:57:41;;;;;;;3.60;0.60;;;;;;;16.59;58.06;99916.97;5076646;28;20032;-67
2023/10/30 03:00:07;;;;;;;7.40;1.50;;;;;;;16.60;56.89;99921.31;5076569;28;20046;-67
2023/10/30 03:02:35;;;;;;;5.17;0.97;;;;;;;16.32;57.91;99920.03;5076684;28;20105;-67
2023/10/30 03:05:00;;;;;;;1.63;0.70;;;;;;;17.30;54.92;99930.09;5075523;28;20499;-68
2023/10/30 03:07:26;;;;;;;3.80;0.60;;;;;;;16.59;57.18;99920.44;5057255;28;20038;-67
2023/10/30 03:09:51;;;;;;;3.83;0.80;;;;;;;16.73;57.35;99922.44;5067858;28;20028;-68
2023/10/30 03:12:17;;;;;;;7.13;2.00;;;;;;;16.17;57.90;99923.38;5076599;28;20028;-67
2023/10/30 03:14:42;;;;;;;6.57;0.77;;;;;;;17.04;56.50;99914.75;5075639;28;20060;-66
2023/10/30 03:17:10;;;;;;;4.73;0.63;;;;;;;16.71;56.35;99919.00;5075483;28;20043;-67
2023/10/30 03:19:39;;;;;;;4.67;0.70;;;;;;;16.66;56.50;99921.00;5095191;28;20032;-67
2023/10/30 03:22:07;;;;;;;3.17;0.70;;;;;;;16.62;57.06;99924.72;5076127;28;20032;-67
2023/10/30 03:24:36;;;;;;;6.67;1.07;;;;;;;16.63;56.98;99934.34;5099722;28;20024;-67
2023/10/30 03:27:05;;;;;;;3.07;1.70;;;;;;;16.65;56.82;99929.00;5075669;28;20621;-68
2023/10/30 03:29:34;;;;;;;7.03;1.50;;;;;;;16.47;57.83;99926.31;5094618;28;20035;-67
2023/10/30 03:32:00;;;;;;;13.10;1.30;;;;;;;16.73;56.75;99925.06;5075669;28;20032;-67
2023/10/30 03:34:25;;;;;;;4.17;0.67;;;;;;;17.28;54.90;99917.91;5091650;28;20089;-67
2023/10/30 03:36:51;;;;;;;1.20;0.43;;;;;;;16.81;56.50;99913.25;5093716;28;20052;-67
2023/10/30 03:39:22;;;;;;;8.27;0.83;;;;;;;17.03;56.08;99911.25;5058036;28;20124;-67
2023/10/30 03:41:51;;;;;;;5.70;0.73;;;;;;;16.12;58.82;99915.72;5074939;28;20024;-67
2023/10/30 03:44:19;;;;;;;5.20;0.80;;;;;;;16.61;57.11;99905.41;5075465;28;20391;-67
2023/10/30 03:46:45;;;;;;;12.40;1.30;;;;;;;16.62;56.50;99915.03;5074689;28;20024;-67
2023/10/30 03:49:10;;;;;;;5.00;1.00;;;;;;;17.21;55.83;99911.25;5075927;28;20096;-67
2023/10/30 03:51:39;;;;;;;6.77;1.00;;;;;;;17.71;53.81;99910.34;5067261;28;20039;-67
2023/10/30 03:54:04;;;;;;;7.00;0.83;;;;;;;17.15;54.94;99908.94;5092908;28;20055;-68
2023/10/30 03:56:29;;;;;;;4.67;0.80;;;;;;;17.13;55.46;99915.13;5075247;28;20056;-68
2023/10/30 03:58:55;;;;;;;6.33;0.73;;;;;;;16.73;56.89;99909.22;5072245;28;20028;-66
2023/10/30 04:01:20;;;;;;;1.93;0.87;;;;;;;16.73;57.14;99911.88;5093490;28;20557;-68
2023/10/30 04:03:46;;;;;;;7.17;1.20;;;;;;;15.65;60.71;99916.97;5090985;28;20117;-67
2023/10/30 04:06:11;;;;;;;7.50;0.90;;;;;;;16.83;58.03;99919.31;5093184;28;20110;-67
2023/10/30 04:08:39;;;;;;;1.00;0.60;;;;;;;16.63;58.85;99923.81;5074368;28;20117;-67
2023/10/30 04:11:13;;;;;;;4.03;1.20;;;;;;;16.50;59.04;99920.94;5094178;28;20030;-68
2023/10/30 04:13:38;;;;;;;5.83;1.10;;;;;;;16.27;60.40;99906.22;5090013;28;20031;-68
2023/10/30 04:16:04;;;;;;;5.43;1.10;;;;;;;16.87;57.27;99907.66;5074888;28;20078;-67
2023/10/30 04:18:31;;;;;;;3.43;0.63;;;;;;;16.36;59.04;99915.44;5075271;28;20501;-68
2023/10/30 04:20:59;;;;;;;4.80;0.67;;;;;;;16.20;59.81;99915.34;5093037;28;20046;-68
2023/10/30 04:23:25;;;;;;;5.67;0.87;;;;;;;16.11;60.58;99909.59;5074476;28;20024;-67
2023/10/30 04:25:55;;;;;;;7.73;1.17;;;;;;;16.95;57.06;99906.38;5093881;28;20034;-68
2023/10/30 04:28:23;;;;;;;7.93;1.40;;;;;;;16.21;61.61;99912.66;5074993;28;20030;-68
2023/10/30 04:30:49;;;;;;;7.93;1.23;;;;;;;16.05;60.66;99909.88;5074866;28;20032;-67
2023/10/30 04:33:15;;;;;;;9.17;0.97;;;;;;;16.63;58.79;99900.06;5072666;28;20061;-67
2023/10/30 04:35:40;;;;;;;3.83;0.70;;;;;;;16.09;60.54;99890.34;5073810;28;20035;-67
2023/10/30 04:38:12;;;;;;;7.00;0.80;;;;;;;16.10;60.57;99905.25;5075262;28;20054;-67
2023/10/30 04:40:40;;;;;;;4.43;1.37;;;;;;;15.77;61.53;99900.59;5075118;28;20028;-68
2023/10/30 04:43:08;;;;;;;12.33;1.13;;;;;;;16.02;61.82;99909.16;5091159;28;20019;-70
2023/10/30 04:45:34;;;;;;;5.13;0.80;;;;;;;15.74;63.04;99906.03;5093083;28;20028;-69
2023/10/30 04:47:59;;;;;;;3.83;1.07;;;;;;;16.59;60.71;99903.78;5092344;28;20399;-69
2023/10/30 04:50:24;;;;;;;3.67;0.90;;;;;;;16.17;60.44;99910.22;5093701;28;20039;-69
2023/10/30 04:52:56;;;;;;;5.63;1.00;;;;;;;16.88;58.63;99904.09;5087518;28;20490;-68
2023/10/30 04:55:27;;;;;;;7.63;1.20;;;;;;;16.99;57.42;99909.69;5073998;28;20044;-67
2023/10/30 04:57:53;;;;;;;5.33;0.63;;;;;;;16.61;59.46;99912.50;5075192;28;20020;-67
2023/10/30 05:00:18;;;;;;;12.40;1.20;;;;;;;17.33;56.43;99915.03;5075224;28;20524;-67
2023/10/30 05:02:46;;;;;;;7.47;1.50;;;;;;;16.65;58.06;99927.22;5074531;28;20480;-67
2023/10/30 05:05:14;;;;;;;7.73;1.90;;;;;;;16.94;58.26;99924.94;5091072;28;20032;-67
2023/10/30 05:07:44;;;;;;;3.67;0.97;;;;;;;17.44;55.79;99916.16;5092580;28;20322;-67
2023/10/30 05:10:12;;;;;;;2.50;0.83;;;;;;;16.95;57.28;99910.78;5074028;28;20024;-67
2023/10/30 05:12:38;;;;;;;5.00;1.10;;;;;;;17.05;57.37;99912.03;5075221;28;20028;-67
2023/10/30 05:15:05;;;;;;;8.00;1.30;;;;;;;17.09;56.42;99916.22;5091306;28;20259;-67
2023/10/30 05:17:31;;;;;;;6.77;1.10;;;;;;;17.02;57.67;99909.56;5093601;28;20444;-67
2023/10/30 05:19:56;;;;;;;8.73;1.10;;;;;;;17.35;56.30;99900.81;5074958;28;20032;-67
2023/10/30 05:22:21;;;;;;;8.53;1.40;;;;;;;17.39;56.27;99899.72;5072545;28;20038;-67
2023/10/30 05:24:47;;;;;;;7.77;0.90;;;;;;;17.13;57.43;99903.72;5074101;28;20242;-67
2023/10/30 05:27:12;;;;;;;8.90;1.90;;;;;;;15.88;62.40;99913.31;5074361;28;20366;-67
2023/10/30 05:29:41;;;;;;;9.17;1.20;;;;;;;16.86;59.08;99905.97;5092043;28;20036;-68
2023/10/30 05:32:07;;;;;;;4.27;1.40;;;;;;;17.22;57.10;99907.66;5072976;28;20035;-67
2023/10/30 05:34:34;;;;;;;7.10;1.20;;;;;;;17.02;57.77;99906.94;5093402;28;20058;-68
2023/10/30 05:37:01;;;;;;;10.57;1.37;;;;;;;16.23;61.12;99913.41;5092915;28;20058;-67
2023/10/30 05:39:26;;;;;;;4.27;1.10;;;;;;;16.66;60.33;99904.34;5074773;28;20024;-67
2023/10/30 05:41:52;;;;;;;12.77;1.33;;;;;;;15.81;63.05;99889.94;5091419;28;20514;-67
2023/10/30 05:44:18;;;;;;;13.50;1.97;;;;;;;16.42;61.40;99896.72;5073891;28;20028;-68
2023/10/30 05:46:46;;;;;;;6.40;1.27;;;;;;;16.42;61.76;99897.56;5093800;28;20045;-68
2023/10/30 05:49:12;;;;;;;7.63;1.60;;;;;;;16.43;61.31;99893.13;5073911;28;20027;-67
2023/10/30 05:51:37;;;;;;;6.07;1.00;;;;;;;16.39;61.13;99897.72;5073676;28;20089;-67
2023/10/30 05:54:03;;;;;;;5.43;1.20;;;;;;;15.98;62.71;99882.13;5074648;28;20566;-67
2023/10/30 05:56:28;;;;;;;9.27;1.57;;;;;;;16.40;61.25;99883.59;5093457;28;20058;-67
2023/10/30 05:58:53;;;;;;;7.40;1.00;;;;;;;16.53;60.64;99893.53;5092640;28;20027;-68
2023/10/30 06:01:19;;;;;;;6.67;1.00;;;;;;;16.28;61.41;99906.13;5091034;28;20024;-67
2023/10/30 06:03:44;;;;;;;9.00;1.30;;;;;;;16.33;62.24;99918.25;5089655;28;20020;-69
2023/10/30 06:06:10;;;;;;;14.57;1.37;;;;;;;16.33;62.10;99929.63;5050002;28;20566;-67
2023/10/30 06:08:36;;;;;;;8.30;1.47;;;;;;;16.51;62.84;99927.03;5070867;28;20032;-67
2023/10/30 06:11:02;;;;;;;5.03;1.40;;;;;;;16.83;60.73;99927.22;5051169;28;20508;-67
2023/10/30 06:13:33;;;;;;;5.57;0.70;;;;;;;16.05;62.86;99930.97;5053297;28;20025;-68
2023/10/30 06:15:59;;;;;;;8.23;1.70;;;;;;;16.60;62.03;99931.88;5071269;28;20036;-67
2023/10/30 06:18:25;;;;;;;12.03;2.23;;;;;;;16.62;60.77;99941.44;5056752;28;20029;-67
2023/10/30 06:20:50;;;;;;;7.43;1.40;;;;;;;16.42;62.55;99939.75;5055056;28;20032;-68
2023/10/30 06:23:16;;;;;;;1.17;0.80;;;;;;;16.31;61.71;99947.34;5074994;28;20044;-68
2023/10/30 06:25:41;;;;;;;6.57;1.20;;;;;;;16.34;61.16;99952.44;5058541;28;20024;-68
2023/10/30 06:28:14;;;;;;;4.43;1.40;;;;;;;16.94;60.15;99935.50;5072944;28;20028;-69
2023/10/30 06:30:40;;;;;;;8.17;1.10;;;;;;;16.22;61.38;99951.25;5057843;28;20183;-67
2023/10/30 06:33:06;;;;;;;3.43;0.63;;;;;;;16.54;61.10;99959.41;5073465;28;20426;-67
2023/10/30 06:35:31;;;;;;;11.87;1.40;;;;;;;16.96;60.44;99954.75;5055795;28;20020;-68
2023/10/30 06:37:57;;;;;;;5.23;0.73;;;;;;;16.87;59.71;99949.88;5072665;28;20017;-68
2023/10/30 06:40:22;;;;;;;14.47;2.20;;;;;;;16.76;59.56;99953.06;5057157;28;20036;-69
2023/10/30 06:42:47;;;;;;;3.97;0.83;;;;;;;16.10;62.63;99955.34;5055737;28;20164;-67
2023/10/30 06:45:13;;;;;;;3.67;1.27;;;;;;;16.15;63.17;99943.72;5055453;28;20034;-69
2023/10/30 06:47:38;;;;;;;2.43;0.80;;;;;;;16.40;61.05;99931.06;5075060;28;20104;-66
2023/10/30 06:50:04;;;;;;;3.23;1.17;;;;;;;16.14;62.91;99950.75;5057373;28;20025;-67
2023/10/30 06:52:33;;;;;;;3.93;0.97;;;;;;;16.43;60.85;99952.00;5057561;28;20028;-67
2023/10/30 06:54:59;;;;;;;5.27;1.00;;;;;;;16.77;60.08;99944.22;5054519;28;20028;-67
2023/10/30 06:57:25;;;;;;;3.30;1.00;;;;;;;16.57;61.40;99950.50;5049205;28;20438;-68
2023/10/30 06:59:52;;;;;;;2.13;1.10;;;;;;;16.85;60.23;99962.31;5070297;28;20036;-69
2023/10/30 07:02:18;;;;;;;10.67;1.30;;;;;;;16.75;59.37;99965.41;5053266;28;20044;-69
2023/10/30 07:04:50;;;;;;;6.73;1.27;;;;;;;16.75;59.91;99965.41;5080924;28;20047;-67
2023/10/30 07:07:15;;;;;;;6.03;1.87;;;;;;;17.60;57.51;99968.19;5091985;28;20058;-69
2023/10/30 07:09:48;;;;;;;8.20;1.30;;;;;;;17.09;59.78;99965.53;5095118;28;20055;-67
2023/10/30 07:12:13;;;;;;;3.53;1.00;;;;;;;17.20;58.27;99979.06;5092100;28;20039;-69
2023/10/30 07:14:45;;;;;;;6.40;0.90;;;;;;;17.57;56.57;99981.56;5092685;28;20532;-67
2023/10/30 07:17:10;;;;;;;8.27;1.60;;;;;;;17.00;58.55;99982.69;5090801;28;20547;-67
2023/10/30 07:19:36;;;;;;;5.23;1.43;;;;;;;17.77;56.10;99973.41;5090192;28;20059;-68
2023/10/30 07:22:04;;;;;;;6.70;1.50;;;;;;;17.10;58.64;99972.50;5091582;28;20115;-67
2023/10/30 07:24:29;;;;;;;10.10;1.67;;;;;;;17.65;57.47;99968.78;5093467;28;20024;-67
2023/10/30 07:26:57;;;;;;;8.40;2.20;;;;;;;17.36;58.37;99971.19;5086882;28;20028;-67
2023/10/30 07:29:29;;;;;;;7.93;2.17;;;;;;;17.98;56.74;99981.16;5090575;28;20380;-69
2023/10/30 07:31:55;;;;;;;12.97;2.43;;;;;;;17.55;57.01;99984.28;5090464;28;20024;-66
2023/10/30 07:34:21;;;;;;;18.13;3.23;;;;;;;18.05;55.63;99987.84;5093257;28;20048;-67
2023/10/30 07:36:47;;;;;;;10.00;3.47;;;;;;;18.25;56.46;99993.81;5088563;28;20540;-68
2023/10/30 07:39:13;;;;;;;10.97;2.97;;;;;;;18.80;54.50;99993.31;5074754;28;20059;-66
2023/10/30 07:41:39;;;;;;;10.90;2.80;;;;;;;18.09;56.04;100015.81;5088774;28;20024;-68
2023/10/30 07:44:13;;;;;;;5.87;1.97;;;;;;;17.99;57.27;100025.16;5084975;28;20081;-67
2023/10/30 07:46:39;;;;;;;11.30;1.80;;;;;;;18.18;56.90;100024.19;5094868;28;20028;-70
2023/10/30 07:49:06;;;;;;;7.17;1.97;;;;;;;18.13;57.51;100027.94;5089915;28;20031;-69
2023/10/30 07:51:31;;;;;;;3.03;1.13;;;;;;;18.03;58.49;100036.44;5086674;28;20370;-67
2023/10/30 07:53:58;;;;;;;5.07;1.43;;;;;;;17.99;59.02;100026.97;5090847;28;20023;-67
2023/10/30 07:56:23;;;;;;;7.33;1.90;;;;;;;17.69;60.82;100011.78;5090880;28;20074;-67
2023/10/30 07:58:50;;;;;;;8.20;2.00;;;;;;;17.80;60.96;100010.28;5091043;28;20024;-67
2023/10/30 08:01:20;;;;;;;3.13;1.63;;;;;;;17.63;62.35;100005.88;5091031;28;20034;-67
2023/10/30 08:03:48;;;;;;;7.77;2.00;;;;;;;17.68;63.00;100005.66;5090608;28;20024;-68
2023/10/30 08:06:14;;;;;;;10.37;2.03;;;;;;;18.11;61.43;99986.66;5069695;28;20344;-67
2023/10/30 08:08:39;;;;;;;11.27;1.63;;;;;;;18.01;62.14;99991.59;5070931;28;20036;-66
2023/10/30 08:11:04;;;;;;;7.53;1.73;;;;;;;18.34;61.21;99969.50;5071844;28;20032;-67
2023/10/30 08:13:31;;;;;;;7.80;2.63;;;;;;;18.72;59.34;99966.44;5046482;28;20396;-70
2023/10/30 08:15:57;;;;;;;5.57;1.40;;;;;;;17.80;63.68;99975.03;5040310;28;20031;-66
2023/10/30 08:18:22;;;;;;;6.13;1.53;;;;;;;18.20;60.69;99969.41;5030355;28;20047;-66
2023/10/30 08:20:48;;;;;;;10.37;1.67;;;;;;;18.56;60.03;99976.22;5034101;28;20096;-67
2023/10/30 08:23:22;;;;;;;7.90;1.10;;;;;;;18.34;60.53;99972.16;5057084;28;20032;-67
2023/10/30 08:25:48;;;;;;;6.37;1.30;;;;;;;18.11;62.23;99976.06;5032348;28;20032;-67
2023/10/30 08:28:14;;;;;;;8.37;2.47;;;;;;;18.45;59.93;99977.69;5048272;28;20055;-67
2023/10/30 08:30:40;;;;;;;3.20;1.00;;;;;;;18.63;60.25;99985.53;5026890;28;20059;-67
2023/10/30 08:33:05;;;;;;;7.73;1.40;;;;;;;18.64;59.32;99995.16;5052955;28;20107;-67
2023/10/30 08:35:32;;;;;;;8.10;2.10;;;;;;;18.25;60.26;100007.88;5039498;28;20107;-69
2023/10/30 08:37:58;;;;;;;8.33;1.60;;;;;;;18.87;59.41;99995.63;5041557;28;20032;-67
2023/10/30 08:40:26;;;;;;;4.53;1.43;;;;;;;18.29;60.10;100011.22;5068457;28;20830;-67
2023/10/30 08:42:58;;;;;;;7.80;1.90;;;;;;;18.96;59.71;100005.75;5053389;28;20043;-67
2023/10/30 08:45:26;;;;;;;7.97;2.13;;;;;;;19.11;58.84;100010.13;5051206;28;20024;-67
2023/10/30 08:47:51;;;;;;;12.37;2.80;;;;;;;19.11;58.30;100014.56;5051992;28;20028;-67
2023/10/30 08:50:16;;;;;;;6.30;1.90;;;;;;;19.36;56.67;100011.31;5062091;28;20035;-66
2023/10/30 08:52:42;;;;;;;6.63;1.73;;;;;;;19.52;56.47;100021.00;5052976;28;20027;-67
2023/10/30 08:55:08;;;;;;;5.65;1.75;;;;;;;19.10;57.65;100023.47;5067714;28;20035;-66
2023/10/30 08:57:34;;;;;;;6.60;1.50;;;;;;;19.32;56.93;100012.44;5062891;28;20104;-67
2023/10/30 08:59:59;;;;;;;7.25;1.90;;;;;;;20.06;55.27;100007.97;5070991;28;20050;-66
2023/10/30 09:02:24;;;;;;;6.68;1.45;;;;;;;19.28;57.01;100021.53;5053386;28;20119;-66
2023/10/30 09:04:50;;;;;;;4.18;1.55;;;;;;;19.70;55.70;100032.28;5067300;28;20058;-67
2023/10/30 09:07:16;;;;;;;6.97;1.48;;;;;;;19.85;55.25;100025.22;5089229;28;20024;-66
2023/10/30 09:09:42;;;;;;;4.78;1.50;;;;;;;18.74;59.03;100037.81;5086023;28;20077;-66
2023/10/30 09:12:08;;;;;;;10.30;1.92;;;;;;;18.86;58.90;100052.16;5090428;28;20032;-66
2023/10/30 09:14:39;;;;;;;4.22;1.58;;;;;;;18.80;59.61;100043.63;5087905;28;20024;-67
2023/10/30 09:17:08;;;;;;;6.18;1.73;;;;;;;18.82;59.69;100041.75;5088272;28;20047;-67
2023/10/30 09:19:41;;;;;;;8.77;1.88;;;;;;;18.71;59.86;100028.28;5076285;28;20028;-66
2023/10/30 09:22:09;;;;;;;4.93;1.13;;;;;;;19.02;58.54;100018.59;5089644;28;20027;-67
2023/10/30 09:24:44;;;;;;;15.80;1.75;;;;;;;19.49;57.22;100027.31;5089987;28;20143;-68
2023/10/30 09:27:09;;;;;;;9.30;1.65;;;;;;;19.06;58.50;100033.38;5089429;28;20153;-66
2023/10/30 09:29:35;;;;;;;2.97;1.13;;;;;;;19.10;58.52;100021.66;5089100;28;20433;-66
2023/10/30 09:32:03;;;;;;;9.77;1.48;;;;;;;18.99;58.02;100024.09;5089890;28;20464;-67
2023/10/30 09:34:34;;;;;;;4.00;1.23;;;;;;;19.06;59.33;100028.06;5090172;28;20016;-67
2023/10/30 09:37:05;;;;;;;7.68;1.52;;;;;;;19.49;57.24;100014.94;5087982;28;20036;-68
2023/10/30 09:39:31;;;;;;;6.25;2.03;;;;;;;19.75;56.65;100019.59;5088597;28;20020;-67
2023/10/30 09:41:59;;;;;;;5.93;1.52;;;;;;;19.65;56.91;100019.31;5089334;28;20030;-67
2023/10/30 09:44:25;;;;;;;5.80;1.77;;;;;;;18.96;58.36;100011.03;5087780;28;20061;-67
2023/10/30 09:46:52;;;;;;;3.97;1.20;;;;;;;19.07;58.56;100011.25;5091302;28;20024;-67
2023/10/30 09:49:18;;;;;;;9.70;1.52;;;;;;;19.27;57.70;100009.22;5090648;28;20016;-67
2023/10/30 09:51:45;;;;;;;7.18;2.08;;;;;;;19.90;56.40;100007.22;5091736;28;20285;-66
2023/10/30 09:54:12;;;;;;;13.93;1.52;;;;;;;19.24;57.88;100012.06;5094680;28;20034;-67
2023/10/30 09:56:38;;;;;;;10.65;1.20;;;;;;;19.01;59.38;100011.59;5095306;28;20032;-67
2023/10/30 09:59:04;;;;;;;3.78;1.00;;;;;;;18.95;58.61;100019.91;5093121;28;20035;-68
2023/10/30 10:01:30;;;;;;;10.25;1.35;;;;;;;20.02;56.01;100017.06;5093982;28;20040;-67
2023/10/30 10:03:55;;;;;;;5.75;1.42;;;;;;;20.22;55.47;100012.31;5094034;28;20020;-68
2023/10/30 10:06:21;;;;;;;5.32;1.30;;;;;;;19.73;56.90;99995.84;5094420;28;20376;-68
2023/10/30 10:08:46;;;;;;;9.75;1.20;;;;;;;20.86;53.45;99970.13;5095011;28;20502;-68
2023/10/30 10:11:12;;;;;;;6.38;1.30;;;;;;;20.86;52.83;99977.28;5092313;28;20032;-68
2023/10/30 10:13:40;;;;;;;3.83;1.13;;;;;;;20.34;54.57;99979.69;5081352;28;20460;-67
2023/10/30 10:18:40;;;;;;;6.28;1.58;;;;;;;21.15;52.93;99988.59;5052899;28;20056;-72
2023/10/30 10:21:11;;;;;;;7.18;1.67;;;;;;;20.90;53.29;99994.72;5034676;28;20028;-71
2023/10/30 10:23:38;;;;;;;7.70;1.10;;;;;;;20.78;53.89;99989.22;5051471;28;20395;-72
2023/10/30 10:26:13;;;;;;;3.95;1.25;;;;;;;20.95;53.64;99996.09;5034176;28;20151;-72
2023/10/30 10:28:39;;;;;;;4.72;1.40;;;;;;;20.83;53.46;99989.78;5036087;28;20456;-72
2023/10/30 10:31:04;;;;;;;7.25;1.63;;;;;;;20.29;53.73;99981.78;5030921;28;20044;-72
2023/10/30 10:33:33;;;;;;;5.90;1.67;;;;;;;20.62;53.93;99968.13;5032458;28;20024;-72
2023/10/30 10:36:03;;;;;;;11.52;1.38;;;;;;;21.15;52.32;99967.31;5034972;28;20033;-73
2023/10/30 10:38:29;;;;;;;4.13;1.20;;;;;;;21.01;52.45;99962.94;5033098;28;20028;-73
2023/10/30 10:40:55;;;;;;;6.60;1.40;;;;;;;21.66;51.12;99975.34;5014937;28;20057;-72
2023/10/30 10:43:23;;;;;;;2.85;1.30;;;;;;;20.99;53.52;99975.47;5032998;28;20052;-72
2023/10/30 10:45:51;;;;;;;2.90;1.58;;;;;;;21.32;52.25;99988.28;5023771;28;20037;-73
2023/10/30 10:48:18;;;;;;;8.88;1.60;;;;;;;20.55;53.36;99987.22;5030644;28;20087;-72
2023/10/30 10:50:44;;;;;;;7.38;1.60;;;;;;;21.12;53.42;99981.66;5029230;28;20091;-72
2023/10/30 10:53:10;;;;;;;4.38;1.23;;;;;;;21.12;51.88;99986.97;5052476;28;20502;-72
2023/10/30 10:56:03;;;;;;;6.25;1.13;;;;;;;21.38;52.00;99986.16;5032913;28;20067;-72
2023/10/30 10:58:41;;;;;;;4.07;1.23;;;;;;;21.28;51.75;99996.56;5034298;28;20117;-72
2023/10/30 11:01:08;;;;;;;7.15;1.30;;;;;;;20.82;53.08;99996.03;5027487;28;20058;-71
2023/10/30 11:03:36;;;;;;;9.80;2.28;;;;;;;22.11;50.62;100000.63;5024995;28;20037;-71
2023/10/30 11:06:03;;;;;;;7.72;1.23;;;;;;;22.70;48.72;99984.78;5028131;28;20040;-72
2023/10/30 11:08:34;;;;;;;5.05;1.25;;;;;;;22.05;49.33;100004.56;5033556;28;20044;-72
2023/10/30 11:11:14;;;;;;;7.53;1.43;;;;;;;21.83;50.28;99998.09;5051887;28;20029;-72
2023/10/30 11:14:07;;;;;;;4.93;1.00;;;;;;;22.67;48.16;99985.00;5050868;28;20033;-72
2023/10/30 11:16:43;;;;;;;6.93;1.10;;;;;;;20.93;51.82;99981.22;5036239;28;20052;-72
2023/10/30 11:19:09;;;;;;;5.30;1.58;;;;;;;21.22;51.52;99978.41;5034612;28;20056;-72
2023/10/30 11:21:35;;;;;;;4.55;1.45;;;;;;;22.24;50.27;99965.97;5037847;28;20072;-72
2023/10/30 11:24:00;;;;;;;10.93;1.88;;;;;;;22.56;48.56;99976.09;5041301;28;20433;-73
2023/10/30 11:26:29;;;;;;;9.23;1.38;;;;;;;23.12;48.34;99976.38;5031440;28;20048;-72
2023/10/30 11:28:55;;;;;;;12.50;1.58;;;;;;;21.48;51.16;99971.28;5013691;28;20029;-72
2023/10/30 11:31:20;;;;;;;6.38;2.05;;;;;;;21.59;51.71;99968.75;5022007;28;20028;-72
2023/10/30 11:33:48;;;;;;;7.82;1.23;;;;;;;20.95;53.11;99971.31;5035099;28;20020;-72